sensor_id;sensor_type;location;lat;lon;timestamp;P1;durP1;ratioP1;P2;durP2;ratioP2
62990;SDS011;49084;48.204;16.202;2022-10-14T00:01:24;44.72;;;25.63;;
62990;SDS011;49084;48.204;16.202;2022-10-14T00:03:51;43.55;;;24.35;;
62990;SDS011;49084;48.204;16.202;2022-10-14T00:06:28;52.05;;;26.88;;
62990;SDS011;49084;48.204;16.202;2022-10-14T00:08:58;49.50;;;25.40;;
62990;SDS011;49084;48.204;16.202;2022-10-14T00:11:27;50.72;;;25.63;;
62990;SDS011;49084;48.204;16.202;2022-10-14T00:13:55;47.70;;;25.83;;
62990;SDS011;49084;48.204;16.202;2022-10-14T00:16:24;52.33;;;25.40;;
62990;SDS011;49084;48.204;16.202;2022-10-14T00:18:52;50.28;;;26.42;;
62990;SDS011;49084;48.204;16.202;2022-10-14T00:21:17;50.13;;;26.13;;
62990;SDS011;49084;48.204;16.202;2022-10-14T00:23:44;43.85;;;24.40;;
62990;SDS011;49084;48.204;16.202;2022-10-14T00:26:14;60.30;;;27.77;;
62990;SDS011;49084;48.204;16.202;2022-10-14T00:28:41;47.95;;;25.00;;
62990;SDS011;49084;48.204;16.202;2022-10-14T00:31:07;43.75;;;25.15;;
62990;SDS011;49084;48.204;16.202;2022-10-14T00:33:33;42.53;;;24.33;;
62990;SDS011;49084;48.204;16.202;2022-10-14T00:36:00;45.35;;;25.05;;
62990;SDS011;49084;48.204;16.202;2022-10-14T00:40:53;45.13;;;24.17;;
62990;SDS011;49084;48.204;16.202;2022-10-14T00:43:19;43.53;;;22.95;;
62990;SDS011;49084;48.204;16.202;2022-10-14T00:45:46;43.95;;;23.98;;
62990;SDS011;49084;48.204;16.202;2022-10-14T00:48:11;48.50;;;24.35;;
62990;SDS011;49084;48.204;16.202;2022-10-14T00:50:38;44.65;;;23.92;;
62990;SDS011;49084;48.204;16.202;2022-10-14T00:53:07;50.75;;;25.63;;
62990;SDS011;49084;48.204;16.202;2022-10-14T00:55:34;45.85;;;24.80;;
62990;SDS011;49084;48.204;16.202;2022-10-14T00:58:03;45.70;;;24.05;;
62990;SDS011;49084;48.204;16.202;2022-10-14T01:00:30;58.22;;;26.88;;
62990;SDS011;49084;48.204;16.202;2022-10-14T01:02:56;57.40;;;27.27;;
62990;SDS011;49084;48.204;16.202;2022-10-14T01:05:22;64.68;;;28.48;;
62990;SDS011;49084;48.204;16.202;2022-10-14T01:07:56;69.05;;;29.45;;
62990;SDS011;49084;48.204;16.202;2022-10-14T01:13:24;77.32;;;32.78;;
62990;SDS011;49084;48.204;16.202;2022-10-14T01:16:10;87.50;;;33.78;;
62990;SDS011;49084;48.204;16.202;2022-10-14T01:22:14;109.07;;;39.33;;
62990;SDS011;49084;48.204;16.202;2022-10-14T01:25:05;100.30;;;38.55;;
62990;SDS011;49084;48.204;16.202;2022-10-14T01:30:23;123.82;;;41.90;;
62990;SDS011;49084;48.204;16.202;2022-10-14T01:37:57;116.97;;;40.95;;
62990;SDS011;49084;48.204;16.202;2022-10-14T01:40:30;124.47;;;41.45;;
62990;SDS011;49084;48.204;16.202;2022-10-14T01:43:20;108.60;;;40.45;;
62990;SDS011;49084;48.204;16.202;2022-10-14T01:45:48;119.57;;;41.67;;
62990;SDS011;49084;48.204;16.202;2022-10-14T01:48:16;122.30;;;42.85;;
62990;SDS011;49084;48.204;16.202;2022-10-14T01:50:45;120.05;;;41.78;;
62990;SDS011;49084;48.204;16.202;2022-10-14T01:53:18;111.22;;;41.15;;
62990;SDS011;49084;48.204;16.202;2022-10-14T01:55:48;110.97;;;40.47;;
62990;SDS011;49084;48.204;16.202;2022-10-14T01:58:17;110.60;;;40.33;;
62990;SDS011;49084;48.204;16.202;2022-10-14T02:03:12;101.03;;;39.13;;
62990;SDS011;49084;48.204;16.202;2022-10-14T02:05:43;107.57;;;40.63;;
62990;SDS011;49084;48.204;16.202;2022-10-14T02:16:40;95.15;;;38.50;;
62990;SDS011;49084;48.204;16.202;2022-10-14T02:19:25;98.10;;;38.13;;
62990;SDS011;49084;48.204;16.202;2022-10-14T02:22:12;94.85;;;37.90;;
62990;SDS011;49084;48.204;16.202;2022-10-14T02:24:46;94.78;;;36.40;;
62990;SDS011;49084;48.204;16.202;2022-10-14T02:27:17;99.53;;;35.65;;
62990;SDS011;49084;48.204;16.202;2022-10-14T02:29:45;112.68;;;39.88;;
62990;SDS011;49084;48.204;16.202;2022-10-14T02:32:13;105.63;;;38.05;;
62990;SDS011;49084;48.204;16.202;2022-10-14T02:37:08;113.18;;;38.85;;
62990;SDS011;49084;48.204;16.202;2022-10-14T02:39:36;105.45;;;38.30;;
62990;SDS011;49084;48.204;16.202;2022-10-14T02:42:07;105.28;;;39.08;;
62990;SDS011;49084;48.204;16.202;2022-10-14T02:44:32;93.75;;;35.97;;
62990;SDS011;49084;48.204;16.202;2022-10-14T02:46:58;108.72;;;38.65;;
62990;SDS011;49084;48.204;16.202;2022-10-14T02:49:24;105.53;;;39.83;;
62990;SDS011;49084;48.204;16.202;2022-10-14T02:51:49;101.32;;;35.78;;
62990;SDS011;49084;48.204;16.202;2022-10-14T02:54:15;109.43;;;39.50;;
62990;SDS011;49084;48.204;16.202;2022-10-14T02:56:41;99.07;;;37.85;;
62990;SDS011;49084;48.204;16.202;2022-10-14T02:59:06;103.15;;;36.85;;
62990;SDS011;49084;48.204;16.202;2022-10-14T03:01:32;93.25;;;34.60;;
62990;SDS011;49084;48.204;16.202;2022-10-14T03:03:58;88.95;;;34.30;;
62990;SDS011;49084;48.204;16.202;2022-10-14T03:06:23;94.80;;;34.42;;
62990;SDS011;49084;48.204;16.202;2022-10-14T03:08:49;85.13;;;34.67;;
62990;SDS011;49084;48.204;16.202;2022-10-14T03:11:15;81.78;;;32.45;;
62990;SDS011;49084;48.204;16.202;2022-10-14T03:13:40;78.15;;;32.58;;
62990;SDS011;49084;48.204;16.202;2022-10-14T03:16:06;75.40;;;31.45;;
62990;SDS011;49084;48.204;16.202;2022-10-14T03:18:32;84.55;;;32.80;;
62990;SDS011;49084;48.204;16.202;2022-10-14T03:20:58;73.90;;;31.88;;
62990;SDS011;49084;48.204;16.202;2022-10-14T03:23:24;84.90;;;33.08;;
62990;SDS011;49084;48.204;16.202;2022-10-14T03:25:49;88.25;;;33.60;;
62990;SDS011;49084;48.204;16.202;2022-10-14T03:28:15;86.40;;;32.70;;
62990;SDS011;49084;48.204;16.202;2022-10-14T03:30:41;89.40;;;33.15;;
62990;SDS011;49084;48.204;16.202;2022-10-14T03:33:06;90.20;;;33.33;;
62990;SDS011;49084;48.204;16.202;2022-10-14T03:35:32;89.68;;;33.55;;
62990;SDS011;49084;48.204;16.202;2022-10-14T03:37:58;86.43;;;32.97;;
62990;SDS011;49084;48.204;16.202;2022-10-14T03:40:26;87.03;;;32.92;;
62990;SDS011;49084;48.204;16.202;2022-10-14T03:42:52;81.25;;;32.33;;
62990;SDS011;49084;48.204;16.202;2022-10-14T03:45:18;82.72;;;31.77;;
62990;SDS011;49084;48.204;16.202;2022-10-14T03:47:43;82.80;;;32.42;;
62990;SDS011;49084;48.204;16.202;2022-10-14T03:50:09;80.38;;;31.65;;
62990;SDS011;49084;48.204;16.202;2022-10-14T03:52:35;71.93;;;31.35;;
62990;SDS011;49084;48.204;16.202;2022-10-14T03:55:00;77.90;;;32.30;;
62990;SDS011;49084;48.204;16.202;2022-10-14T03:57:26;76.18;;;31.88;;
62990;SDS011;49084;48.204;16.202;2022-10-14T03:59:52;77.13;;;31.35;;
62990;SDS011;49084;48.204;16.202;2022-10-14T04:02:18;70.88;;;30.35;;
62990;SDS011;49084;48.204;16.202;2022-10-14T04:04:43;77.60;;;31.58;;
62990;SDS011;49084;48.204;16.202;2022-10-14T04:07:09;69.05;;;29.83;;
62990;SDS011;49084;48.204;16.202;2022-10-14T04:09:35;72.70;;;29.88;;
62990;SDS011;49084;48.204;16.202;2022-10-14T04:12:00;74.32;;;28.48;;
62990;SDS011;49084;48.204;16.202;2022-10-14T04:14:26;69.68;;;30.67;;
62990;SDS011;49084;48.204;16.202;2022-10-14T04:16:51;70.10;;;29.77;;
62990;SDS011;49084;48.204;16.202;2022-10-14T04:19:17;68.43;;;29.40;;
62990;SDS011;49084;48.204;16.202;2022-10-14T04:21:44;71.35;;;30.13;;
62990;SDS011;49084;48.204;16.202;2022-10-14T04:24:10;64.10;;;27.58;;
62990;SDS011;49084;48.204;16.202;2022-10-14T04:26:36;66.28;;;29.65;;
62990;SDS011;49084;48.204;16.202;2022-10-14T04:29:02;60.88;;;27.70;;
62990;SDS011;49084;48.204;16.202;2022-10-14T04:31:28;65.72;;;28.33;;
62990;SDS011;49084;48.204;16.202;2022-10-14T04:33:53;58.97;;;26.23;;
62990;SDS011;49084;48.204;16.202;2022-10-14T04:36:19;55.28;;;27.08;;
62990;SDS011;49084;48.204;16.202;2022-10-14T04:38:44;53.72;;;26.70;;
62990;SDS011;49084;48.204;16.202;2022-10-14T04:41:10;52.33;;;25.58;;
62990;SDS011;49084;48.204;16.202;2022-10-14T04:43:36;54.40;;;26.50;;
62990;SDS011;49084;48.204;16.202;2022-10-14T04:46:01;55.53;;;26.17;;
62990;SDS011;49084;48.204;16.202;2022-10-14T04:48:27;60.75;;;28.25;;
62990;SDS011;49084;48.204;16.202;2022-10-14T04:50:53;61.88;;;29.25;;
62990;SDS011;49084;48.204;16.202;2022-10-14T04:53:18;57.83;;;28.50;;
62990;SDS011;49084;48.204;16.202;2022-10-14T04:55:45;62.72;;;29.73;;
62990;SDS011;49084;48.204;16.202;2022-10-14T04:58:13;58.63;;;26.90;;
62990;SDS011;49084;48.204;16.202;2022-10-14T05:00:40;58.45;;;28.33;;
62990;SDS011;49084;48.204;16.202;2022-10-14T05:03:06;52.90;;;27.52;;
62990;SDS011;49084;48.204;16.202;2022-10-14T05:05:32;50.72;;;25.88;;
62990;SDS011;49084;48.204;16.202;2022-10-14T05:07:57;48.33;;;25.20;;
62990;SDS011;49084;48.204;16.202;2022-10-14T05:10:23;47.20;;;25.27;;
62990;SDS011;49084;48.204;16.202;2022-10-14T05:12:48;47.83;;;25.83;;
62990;SDS011;49084;48.204;16.202;2022-10-14T05:15:14;45.10;;;25.38;;
62990;SDS011;49084;48.204;16.202;2022-10-14T05:17:40;48.47;;;26.00;;
62990;SDS011;49084;48.204;16.202;2022-10-14T05:20:08;45.92;;;25.90;;
62990;SDS011;49084;48.204;16.202;2022-10-14T05:22:35;44.85;;;24.63;;
62990;SDS011;49084;48.204;16.202;2022-10-14T05:25:01;44.40;;;25.02;;
62990;SDS011;49084;48.204;16.202;2022-10-14T05:27:27;45.70;;;25.52;;
62990;SDS011;49084;48.204;16.202;2022-10-14T05:29:53;48.42;;;26.42;;
62990;SDS011;49084;48.204;16.202;2022-10-14T05:32:18;51.13;;;27.00;;
62990;SDS011;49084;48.204;16.202;2022-10-14T05:34:44;48.88;;;26.02;;
62990;SDS011;49084;48.204;16.202;2022-10-14T05:37:10;52.92;;;26.25;;
62990;SDS011;49084;48.204;16.202;2022-10-14T05:39:36;52.20;;;26.60;;
62990;SDS011;49084;48.204;16.202;2022-10-14T05:42:01;52.92;;;25.27;;
62990;SDS011;49084;48.204;16.202;2022-10-14T05:44:27;44.28;;;24.80;;
62990;SDS011;49084;48.204;16.202;2022-10-14T05:46:53;50.75;;;26.33;;
62990;SDS011;49084;48.204;16.202;2022-10-14T05:49:18;49.47;;;25.13;;
62990;SDS011;49084;48.204;16.202;2022-10-14T05:51:44;40.58;;;24.30;;
62990;SDS011;49084;48.204;16.202;2022-10-14T05:54:10;44.38;;;25.48;;
62990;SDS011;49084;48.204;16.202;2022-10-14T05:56:36;42.22;;;25.42;;
62990;SDS011;49084;48.204;16.202;2022-10-14T05:59:02;42.17;;;23.58;;
62990;SDS011;49084;48.204;16.202;2022-10-14T06:01:28;42.10;;;24.30;;
62990;SDS011;49084;48.204;16.202;2022-10-14T06:03:55;42.95;;;23.85;;
62990;SDS011;49084;48.204;16.202;2022-10-14T06:06:21;41.80;;;24.95;;
62990;SDS011;49084;48.204;16.202;2022-10-14T06:08:46;44.22;;;25.73;;
62990;SDS011;49084;48.204;16.202;2022-10-14T06:11:12;44.83;;;24.27;;
62990;SDS011;49084;48.204;16.202;2022-10-14T06:13:38;40.05;;;24.75;;
62990;SDS011;49084;48.204;16.202;2022-10-14T06:16:04;46.08;;;26.90;;
62990;SDS011;49084;48.204;16.202;2022-10-14T06:18:33;41.63;;;25.65;;
62990;SDS011;49084;48.204;16.202;2022-10-14T06:20:59;42.30;;;24.85;;
62990;SDS011;49084;48.204;16.202;2022-10-14T06:23:25;43.58;;;25.95;;
62990;SDS011;49084;48.204;16.202;2022-10-14T06:25:51;43.63;;;24.80;;
62990;SDS011;49084;48.204;16.202;2022-10-14T06:28:17;42.35;;;24.95;;
62990;SDS011;49084;48.204;16.202;2022-10-14T06:30:49;41.72;;;24.20;;
62990;SDS011;49084;48.204;16.202;2022-10-14T06:33:18;41.10;;;24.38;;
62990;SDS011;49084;48.204;16.202;2022-10-14T06:35:45;41.20;;;24.25;;
62990;SDS011;49084;48.204;16.202;2022-10-14T06:38:11;42.25;;;26.08;;
62990;SDS011;49084;48.204;16.202;2022-10-14T06:40:37;41.60;;;24.95;;
62990;SDS011;49084;48.204;16.202;2022-10-14T06:43:02;38.35;;;24.52;;
62990;SDS011;49084;48.204;16.202;2022-10-14T06:45:28;39.42;;;23.48;;
62990;SDS011;49084;48.204;16.202;2022-10-14T06:47:54;44.88;;;24.98;;
62990;SDS011;49084;48.204;16.202;2022-10-14T06:50:20;38.13;;;23.15;;
62990;SDS011;49084;48.204;16.202;2022-10-14T06:52:46;37.90;;;23.02;;
62990;SDS011;49084;48.204;16.202;2022-10-14T06:55:11;40.17;;;23.73;;
62990;SDS011;49084;48.204;16.202;2022-10-14T06:57:38;35.35;;;23.33;;
62990;SDS011;49084;48.204;16.202;2022-10-14T07:00:04;39.17;;;24.30;;
62990;SDS011;49084;48.204;16.202;2022-10-14T07:02:31;42.58;;;23.15;;
62990;SDS011;49084;48.204;16.202;2022-10-14T07:04:56;42.85;;;24.65;;
62990;SDS011;49084;48.204;16.202;2022-10-14T07:07:22;38.95;;;23.85;;
62990;SDS011;49084;48.204;16.202;2022-10-14T07:09:48;38.80;;;22.35;;
62990;SDS011;49084;48.204;16.202;2022-10-14T07:12:14;43.42;;;23.65;;
62990;SDS011;49084;48.204;16.202;2022-10-14T07:14:40;36.20;;;23.13;;
62990;SDS011;49084;48.204;16.202;2022-10-14T07:17:06;44.17;;;23.80;;
62990;SDS011;49084;48.204;16.202;2022-10-14T07:19:32;41.95;;;24.05;;
62990;SDS011;49084;48.204;16.202;2022-10-14T07:21:58;44.30;;;23.95;;
62990;SDS011;49084;48.204;16.202;2022-10-14T07:24:24;42.35;;;24.25;;
62990;SDS011;49084;48.204;16.202;2022-10-14T07:26:50;43.25;;;25.10;;
62990;SDS011;49084;48.204;16.202;2022-10-14T07:29:16;43.08;;;25.30;;
62990;SDS011;49084;48.204;16.202;2022-10-14T07:31:41;41.17;;;24.73;;
62990;SDS011;49084;48.204;16.202;2022-10-14T07:34:07;42.25;;;24.85;;
62990;SDS011;49084;48.204;16.202;2022-10-14T07:36:33;41.53;;;24.75;;
62990;SDS011;49084;48.204;16.202;2022-10-14T07:38:59;42.50;;;24.83;;
62990;SDS011;49084;48.204;16.202;2022-10-14T07:41:25;44.08;;;25.13;;
62990;SDS011;49084;48.204;16.202;2022-10-14T07:43:52;48.47;;;27.63;;
62990;SDS011;49084;48.204;16.202;2022-10-14T07:46:20;52.43;;;28.60;;
62990;SDS011;49084;48.204;16.202;2022-10-14T07:48:56;43.90;;;24.98;;
62990;SDS011;49084;48.204;16.202;2022-10-14T07:51:24;47.55;;;26.70;;
62990;SDS011;49084;48.204;16.202;2022-10-14T07:53:51;45.65;;;25.83;;
62990;SDS011;49084;48.204;16.202;2022-10-14T07:56:18;42.45;;;25.05;;
62990;SDS011;49084;48.204;16.202;2022-10-14T07:58:44;40.97;;;24.05;;
62990;SDS011;49084;48.204;16.202;2022-10-14T08:01:10;46.95;;;26.10;;
62990;SDS011;49084;48.204;16.202;2022-10-14T08:03:36;44.67;;;26.48;;
62990;SDS011;49084;48.204;16.202;2022-10-14T08:06:02;49.35;;;26.65;;
62990;SDS011;49084;48.204;16.202;2022-10-14T08:08:29;46.92;;;26.75;;
62990;SDS011;49084;48.204;16.202;2022-10-14T08:11:08;45.55;;;24.85;;
62990;SDS011;49084;48.204;16.202;2022-10-14T08:13:36;51.10;;;27.52;;
62990;SDS011;49084;48.204;16.202;2022-10-14T08:16:09;49.03;;;26.17;;
62990;SDS011;49084;48.204;16.202;2022-10-14T08:18:37;41.53;;;23.92;;
62990;SDS011;49084;48.204;16.202;2022-10-14T08:21:03;40.60;;;23.58;;
62990;SDS011;49084;48.204;16.202;2022-10-14T08:23:29;43.08;;;23.55;;
62990;SDS011;49084;48.204;16.202;2022-10-14T08:25:56;40.83;;;23.45;;
62990;SDS011;49084;48.204;16.202;2022-10-14T08:28:22;44.75;;;25.33;;
62990;SDS011;49084;48.204;16.202;2022-10-14T08:30:48;38.50;;;24.13;;
62990;SDS011;49084;48.204;16.202;2022-10-14T08:33:14;45.90;;;26.15;;
62990;SDS011;49084;48.204;16.202;2022-10-14T08:35:40;49.55;;;26.15;;
62990;SDS011;49084;48.204;16.202;2022-10-14T08:38:05;46.20;;;26.40;;
62990;SDS011;49084;48.204;16.202;2022-10-14T08:40:35;46.70;;;26.38;;
62990;SDS011;49084;48.204;16.202;2022-10-14T08:46:29;32.45;;;21.33;;
62990;SDS011;49084;48.204;16.202;2022-10-14T08:51:32;25.10;;;16.80;;
62990;SDS011;49084;48.204;16.202;2022-10-14T08:53:59;27.48;;;14.85;;
62990;SDS011;49084;48.204;16.202;2022-10-14T08:56:31;21.25;;;14.98;;
62990;SDS011;49084;48.204;16.202;2022-10-14T09:01:32;22.13;;;14.50;;
62990;SDS011;49084;48.204;16.202;2022-10-14T09:04:04;22.98;;;14.20;;
62990;SDS011;49084;48.204;16.202;2022-10-14T09:06:35;19.63;;;13.32;;
62990;SDS011;49084;48.204;16.202;2022-10-14T09:09:05;21.30;;;14.07;;
62990;SDS011;49084;48.204;16.202;2022-10-14T09:11:51;22.92;;;15.15;;
62990;SDS011;49084;48.204;16.202;2022-10-14T09:14:22;25.27;;;14.88;;
62990;SDS011;49084;48.204;16.202;2022-10-14T09:16:51;23.20;;;14.65;;
62990;SDS011;49084;48.204;16.202;2022-10-14T09:19:30;21.77;;;14.57;;
62990;SDS011;49084;48.204;16.202;2022-10-14T09:21:59;20.77;;;12.80;;
62990;SDS011;49084;48.204;16.202;2022-10-14T09:24:35;21.42;;;12.13;;
62990;SDS011;49084;48.204;16.202;2022-10-14T09:32:29;22.75;;;12.43;;
62990;SDS011;49084;48.204;16.202;2022-10-14T09:34:58;17.85;;;11.57;;
62990;SDS011;49084;48.204;16.202;2022-10-14T09:42:46;17.10;;;11.85;;
62990;SDS011;49084;48.204;16.202;2022-10-14T09:45:17;14.15;;;11.38;;
62990;SDS011;49084;48.204;16.202;2022-10-14T09:47:53;17.15;;;12.30;;
62990;SDS011;49084;48.204;16.202;2022-10-14T09:53:02;19.58;;;12.75;;
62990;SDS011;49084;48.204;16.202;2022-10-14T09:55:32;18.10;;;11.50;;
62990;SDS011;49084;48.204;16.202;2022-10-14T09:58:03;16.92;;;11.18;;
62990;SDS011;49084;48.204;16.202;2022-10-14T10:00:39;19.50;;;11.15;;
62990;SDS011;49084;48.204;16.202;2022-10-14T10:03:05;18.30;;;12.02;;
62990;SDS011;49084;48.204;16.202;2022-10-14T10:05:32;18.60;;;10.32;;
62990;SDS011;49084;48.204;16.202;2022-10-14T10:13:35;10.10;;;6.15;;
62990;SDS011;49084;48.204;16.202;2022-10-14T10:18:45;9.27;;;5.50;;
62990;SDS011;49084;48.204;16.202;2022-10-14T10:21:15;12.88;;;5.95;;
62990;SDS011;49084;48.204;16.202;2022-10-14T10:23:54;12.90;;;5.47;;
62990;SDS011;49084;48.204;16.202;2022-10-14T10:26:31;12.80;;;6.47;;
62990;SDS011;49084;48.204;16.202;2022-10-14T10:28:59;6.32;;;4.90;;
62990;SDS011;49084;48.204;16.202;2022-10-14T10:37:21;9.27;;;5.20;;
62990;SDS011;49084;48.204;16.202;2022-10-14T10:45:57;6.18;;;4.45;;
62990;SDS011;49084;48.204;16.202;2022-10-14T10:51:29;4.00;;;2.75;;
62990;SDS011;49084;48.204;16.202;2022-10-14T10:56:47;2.70;;;2.17;;
62990;SDS011;49084;48.204;16.202;2022-10-14T10:59:24;1.60;;;1.50;;
62990;SDS011;49084;48.204;16.202;2022-10-14T11:04:45;2.67;;;2.03;;
62990;SDS011;49084;48.204;16.202;2022-10-14T11:07:26;2.80;;;1.75;;
62990;SDS011;49084;48.204;16.202;2022-10-14T11:15:58;3.55;;;2.72;;
62990;SDS011;49084;48.204;16.202;2022-10-14T11:21:34;2.53;;;2.28;;
62990;SDS011;49084;48.204;16.202;2022-10-14T11:27:09;3.85;;;2.28;;
62990;SDS011;49084;48.204;16.202;2022-10-14T11:32:29;3.05;;;1.98;;
62990;SDS011;49084;48.204;16.202;2022-10-14T11:35:12;1.73;;;1.45;;
62990;SDS011;49084;48.204;16.202;2022-10-14T11:40:38;2.72;;;1.88;;
62990;SDS011;49084;48.204;16.202;2022-10-14T11:43:19;2.35;;;1.85;;
62990;SDS011;49084;48.204;16.202;2022-10-14T11:46:08;4.50;;;1.98;;
62990;SDS011;49084;48.204;16.202;2022-10-14T11:58:58;1.50;;;1.40;;
62990;SDS011;49084;48.204;16.202;2022-10-14T12:01:27;2.53;;;1.88;;
62990;SDS011;49084;48.204;16.202;2022-10-14T12:03:58;1.75;;;1.13;;
62990;SDS011;49084;48.204;16.202;2022-10-14T12:06:31;3.13;;;1.60;;
62990;SDS011;49084;48.204;16.202;2022-10-14T12:11:35;2.83;;;1.10;;
62990;SDS011;49084;48.204;16.202;2022-10-14T12:14:22;4.43;;;1.40;;
62990;SDS011;49084;48.204;16.202;2022-10-14T12:16:50;3.55;;;2.28;;
62990;SDS011;49084;48.204;16.202;2022-10-14T12:19:23;2.40;;;1.45;;
62990;SDS011;49084;48.204;16.202;2022-10-14T12:24:37;6.15;;;1.70;;
62990;SDS011;49084;48.204;16.202;2022-10-14T12:27:08;3.15;;;1.50;;
62990;SDS011;49084;48.204;16.202;2022-10-14T12:29:40;6.07;;;2.03;;
62990;SDS011;49084;48.204;16.202;2022-10-14T12:34:54;2.20;;;1.70;;
62990;SDS011;49084;48.204;16.202;2022-10-14T12:42:27;6.32;;;1.98;;
62990;SDS011;49084;48.204;16.202;2022-10-14T12:44:56;6.00;;;1.90;;
62990;SDS011;49084;48.204;16.202;2022-10-14T12:47:32;1.67;;;1.40;;
62990;SDS011;49084;48.204;16.202;2022-10-14T12:50:00;5.82;;;1.33;;
62990;SDS011;49084;48.204;16.202;2022-10-14T12:52:39;4.28;;;1.73;;
62990;SDS011;49084;48.204;16.202;2022-10-14T12:55:18;3.60;;;1.30;;
62990;SDS011;49084;48.204;16.202;2022-10-14T12:57:59;4.32;;;1.23;;
62990;SDS011;49084;48.204;16.202;2022-10-14T13:00:28;1.50;;;1.40;;
62990;SDS011;49084;48.204;16.202;2022-10-14T13:03:01;5.75;;;1.40;;
62990;SDS011;49084;48.204;16.202;2022-10-14T13:19:01;4.82;;;1.80;;
62990;SDS011;49084;48.204;16.202;2022-10-14T13:21:28;2.40;;;1.67;;
62990;SDS011;49084;48.204;16.202;2022-10-14T13:24:04;3.22;;;1.70;;
62990;SDS011;49084;48.204;16.202;2022-10-14T13:29:03;7.78;;;2.42;;
62990;SDS011;49084;48.204;16.202;2022-10-14T13:40:20;4.10;;;1.60;;
62990;SDS011;49084;48.204;16.202;2022-10-14T13:42:59;5.88;;;1.40;;
62990;SDS011;49084;48.204;16.202;2022-10-14T13:45:33;3.73;;;1.57;;
62990;SDS011;49084;48.204;16.202;2022-10-14T13:48:04;5.68;;;2.10;;
62990;SDS011;49084;48.204;16.202;2022-10-14T13:50:34;5.43;;;1.60;;
62990;SDS011;49084;48.204;16.202;2022-10-14T13:53:03;4.38;;;1.52;;
62990;SDS011;49084;48.204;16.202;2022-10-14T13:55:30;7.00;;;1.60;;
62990;SDS011;49084;48.204;16.202;2022-10-14T14:00:33;2.05;;;1.20;;
62990;SDS011;49084;48.204;16.202;2022-10-14T14:03:02;3.23;;;1.10;;
62990;SDS011;49084;48.204;16.202;2022-10-14T14:05:45;8.45;;;1.05;;
62990;SDS011;49084;48.204;16.202;2022-10-14T14:08:14;2.55;;;1.23;;
62990;SDS011;49084;48.204;16.202;2022-10-14T14:10:50;2.33;;;1.50;;
62990;SDS011;49084;48.204;16.202;2022-10-14T14:13:21;3.45;;;1.48;;
62990;SDS011;49084;48.204;16.202;2022-10-14T14:15:49;4.03;;;1.20;;
62990;SDS011;49084;48.204;16.202;2022-10-14T14:20:59;3.45;;;1.20;;
62990;SDS011;49084;48.204;16.202;2022-10-14T14:23:26;1.38;;;0.98;;
62990;SDS011;49084;48.204;16.202;2022-10-14T14:25:52;4.72;;;0.77;;
62990;SDS011;49084;48.204;16.202;2022-10-14T14:28:18;3.67;;;1.00;;
62990;SDS011;49084;48.204;16.202;2022-10-14T14:30:51;7.57;;;1.00;;
62990;SDS011;49084;48.204;16.202;2022-10-14T14:33:23;2.83;;;1.08;;
62990;SDS011;49084;48.204;16.202;2022-10-14T14:35:54;2.97;;;0.90;;
62990;SDS011;49084;48.204;16.202;2022-10-14T14:38:33;5.47;;;1.40;;
62990;SDS011;49084;48.204;16.202;2022-10-14T14:43:47;4.75;;;1.02;;
62990;SDS011;49084;48.204;16.202;2022-10-14T14:46:17;6.00;;;1.40;;
62990;SDS011;49084;48.204;16.202;2022-10-14T14:48:50;5.55;;;1.55;;
62990;SDS011;49084;48.204;16.202;2022-10-14T14:51:18;7.13;;;1.58;;
62990;SDS011;49084;48.204;16.202;2022-10-14T14:53:52;6.93;;;1.70;;
62990;SDS011;49084;48.204;16.202;2022-10-14T14:56:29;4.65;;;2.03;;
62990;SDS011;49084;48.204;16.202;2022-10-14T14:59:15;3.55;;;1.95;;
62990;SDS011;49084;48.204;16.202;2022-10-14T15:01:52;4.13;;;2.17;;
62990;SDS011;49084;48.204;16.202;2022-10-14T15:04:20;5.43;;;1.65;;
62990;SDS011;49084;48.204;16.202;2022-10-14T15:07:02;4.93;;;2.20;;
62990;SDS011;49084;48.204;16.202;2022-10-14T15:09:48;5.65;;;1.63;;
62990;SDS011;49084;48.204;16.202;2022-10-14T15:14:54;8.77;;;2.10;;
62990;SDS011;49084;48.204;16.202;2022-10-14T15:17:25;12.40;;;2.35;;
62990;SDS011;49084;48.204;16.202;2022-10-14T15:20:06;5.85;;;2.42;;
62990;SDS011;49084;48.204;16.202;2022-10-14T15:22:51;7.40;;;2.75;;
62990;SDS011;49084;48.204;16.202;2022-10-14T15:27:56;7.47;;;3.55;;
62990;SDS011;49084;48.204;16.202;2022-10-14T15:30:30;13.05;;;4.43;;
62990;SDS011;49084;48.204;16.202;2022-10-14T15:33:09;6.78;;;4.03;;
62990;SDS011;49084;48.204;16.202;2022-10-14T15:35:37;7.82;;;4.30;;
62990;SDS011;49084;48.204;16.202;2022-10-14T15:38:06;6.13;;;4.20;;
62990;SDS011;49084;48.204;16.202;2022-10-14T15:40:37;9.30;;;4.10;;
62990;SDS011;49084;48.204;16.202;2022-10-14T15:43:07;5.63;;;4.05;;
62990;SDS011;49084;48.204;16.202;2022-10-14T15:45:35;6.95;;;3.83;;
62990;SDS011;49084;48.204;16.202;2022-10-14T15:48:02;9.90;;;4.55;;
62990;SDS011;49084;48.204;16.202;2022-10-14T15:50:30;10.07;;;4.25;;
62990;SDS011;49084;48.204;16.202;2022-10-14T15:52:56;8.05;;;4.13;;
62990;SDS011;49084;48.204;16.202;2022-10-14T15:55:26;15.25;;;4.93;;
62990;SDS011;49084;48.204;16.202;2022-10-14T15:57:54;7.18;;;4.60;;
62990;SDS011;49084;48.204;16.202;2022-10-14T16:00:20;8.80;;;5.43;;
62990;SDS011;49084;48.204;16.202;2022-10-14T16:02:49;10.30;;;4.90;;
62990;SDS011;49084;48.204;16.202;2022-10-14T16:05:18;11.13;;;5.68;;
62990;SDS011;49084;48.204;16.202;2022-10-14T16:07:45;16.63;;;5.82;;
62990;SDS011;49084;48.204;16.202;2022-10-14T16:10:13;8.20;;;5.30;;
62990;SDS011;49084;48.204;16.202;2022-10-14T16:12:41;12.77;;;5.47;;
62990;SDS011;49084;48.204;16.202;2022-10-14T16:18:10;10.60;;;5.18;;
62990;SDS011;49084;48.204;16.202;2022-10-14T16:20:36;11.18;;;4.95;;
62990;SDS011;49084;48.204;16.202;2022-10-14T16:23:02;9.45;;;5.22;;
62990;SDS011;49084;48.204;16.202;2022-10-14T16:25:37;20.45;;;5.75;;
62990;SDS011;49084;48.204;16.202;2022-10-14T16:28:08;15.32;;;6.57;;
62990;SDS011;49084;48.204;16.202;2022-10-14T16:30:35;11.55;;;6.63;;
62990;SDS011;49084;48.204;16.202;2022-10-14T16:33:02;9.23;;;5.35;;
62990;SDS011;49084;48.204;16.202;2022-10-14T16:35:28;12.48;;;6.80;;
62990;SDS011;49084;48.204;16.202;2022-10-14T16:37:54;12.18;;;6.30;;
62990;SDS011;49084;48.204;16.202;2022-10-14T16:40:20;12.75;;;7.40;;
62990;SDS011;49084;48.204;16.202;2022-10-14T16:42:46;7.88;;;6.43;;
62990;SDS011;49084;48.204;16.202;2022-10-14T16:45:12;12.90;;;6.93;;
62990;SDS011;49084;48.204;16.202;2022-10-14T16:47:38;13.18;;;6.20;;
62990;SDS011;49084;48.204;16.202;2022-10-14T16:50:05;13.63;;;6.88;;
62990;SDS011;49084;48.204;16.202;2022-10-14T16:52:31;14.10;;;7.55;;
62990;SDS011;49084;48.204;16.202;2022-10-14T16:55:18;13.85;;;7.00;;
62990;SDS011;49084;48.204;16.202;2022-10-14T16:57:44;14.75;;;7.68;;
62990;SDS011;49084;48.204;16.202;2022-10-14T17:00:10;12.10;;;7.53;;
62990;SDS011;49084;48.204;16.202;2022-10-14T17:02:36;16.42;;;7.68;;
62990;SDS011;49084;48.204;16.202;2022-10-14T17:05:02;15.57;;;8.40;;
62990;SDS011;49084;48.204;16.202;2022-10-14T17:07:28;17.92;;;8.63;;
62990;SDS011;49084;48.204;16.202;2022-10-14T17:09:54;12.18;;;8.38;;